TimeEDT,TemperatureF,Dew PointF,Humidity,Sea Level PressureIn,VisibilityMPH,Wind Direction,Wind SpeedMPH,Gust SpeedMPH,PrecipitationIn,Events,Conditions,WindDirDegrees,DateUTC
12:15 AM,51.3,18.0,27,30.13,10.0,NNE,5.8,-,N/A,,Overcast,20,2013-04-03 04:15:00
12:35 AM,50.9,18.0,27,30.14,10.0,NNE,3.5,-,N/A,,Overcast,20,2013-04-03 04:35:00
12:55 AM,50.9,17.8,27,30.14,10.0,North,4.6,-,N/A,,Overcast,10,2013-04-03 04:55:00
1:15 AM,50.5,18.5,28,30.15,10.0,North,5.8,-,N/A,,Overcast,10,2013-04-03 05:15:00
1:35 AM,50.4,18.5,28,30.15,10.0,NNE,3.5,-,N/A,,Overcast,30,2013-04-03 05:35:00
1:55 AM,50.2,19.4,30,30.16,10.0,Calm,Calm,-,N/A,,Overcast,0,2013-04-03 05:55:00
2:15 AM,49.5,20.7,32,30.16,10.0,Calm,Calm,-,N/A,,Overcast,0,2013-04-03 06:15:00
2:35 AM,49.1,22.1,35,30.15,10.0,ENE,3.5,-,N/A,,Overcast,70,2013-04-03 06:35:00
2:55 AM,49.1,20.5,32,30.15,10.0,ENE,3.5,-,N/A,,Mostly Cloudy,70,2013-04-03 06:55:00
3:15 AM,49.1,20.1,32,30.15,10.0,Calm,Calm,-,N/A,,Overcast,0,2013-04-03 07:15:00
3:35 AM,48.7,18.9,31,30.15,10.0,NE,4.6,-,N/A,,Overcast,40,2013-04-03 07:35:00
3:55 AM,48.2,17.8,30,30.15,10.0,NNE,6.9,-,N/A,,Overcast,20,2013-04-03 07:55:00
4:15 AM,48.2,17.1,29,30.16,10.0,NNE,6.9,-,N/A,,Mostly Cloudy,20,2013-04-03 08:15:00
4:35 AM,47.8,17.8,30,30.17,10.0,NNE,6.9,-,N/A,,Scattered Clouds,20,2013-04-03 08:35:00
4:55 AM,47.3,18.1,31,30.16,10.0,NNE,8.1,-,N/A,,Scattered Clouds,20,2013-04-03 08:55:00
5:15 AM,47.3,17.1,30,30.16,10.0,NNE,8.1,-,N/A,,Mostly Cloudy,20,2013-04-03 09:15:00
5:35 AM,46.4,15.3,29,30.15,10.0,NE,8.1,-,N/A,,Mostly Cloudy,40,2013-04-03 09:35:00
5:55 AM,46.4,14.7,28,30.17,10.0,NNE,8.1,-,N/A,,Mostly Cloudy,30,2013-04-03 09:55:00
6:15 AM,46.0,14.5,28,30.19,10.0,NNE,5.8,-,N/A,,Overcast,20,2013-04-03 10:15:00
6:35 AM,45.5,13.6,28,30.21,10.0,NNE,8.1,-,N/A,,Overcast,30,2013-04-03 10:35:00
6:55 AM,44.4,13.8,29,30.21,10.0,NNE,5.8,-,N/A,,Scattered Clouds,20,2013-04-03 10:55:00
7:15 AM,43.2,14.5,31,30.22,10.0,NNE,5.8,-,N/A,,Clear,30,2013-04-03 11:15:00
7:35 AM,42.8,14.4,32,30.23,10.0,NNE,6.9,-,N/A,,Clear,20,2013-04-03 11:35:00
7:55 AM,43.3,14.5,31,30.25,10.0,NNE,3.5,-,N/A,,Clear,20,2013-04-03 11:55:00
8:15 AM,44.4,14.9,30,30.26,10.0,NE,4.6,-,N/A,,Clear,40,2013-04-03 12:15:00
8:35 AM,45.1,14.5,29,30.26,10.0,ENE,4.6,-,N/A,,Clear,70,2013-04-03 12:35:00
8:55 AM,46.0,14.4,28,30.27,10.0,NNE,5.8,-,N/A,,Clear,30,2013-04-03 12:55:00
9:15 AM,47.3,14.0,26,30.28,10.0,NNE,5.8,-,N/A,,Clear,30,2013-04-03 13:15:00
9:35 AM,48.0,14.9,27,30.27,10.0,NNE,4.6,-,N/A,,Clear,30,2013-04-03 13:35:00
9:55 AM,48.2,14.4,26,30.26,10.0,NE,3.5,-,N/A,,Clear,50,2013-04-03 13:55:00
10:15 AM,49.5,14.5,25,30.26,10.0,ENE,5.8,-,N/A,,Clear,70,2013-04-03 14:15:00
10:35 AM,50.4,16.2,26,30.26,10.0,ESE,3.5,-,N/A,,Clear,120,2013-04-03 14:35:00
10:55 AM,50.9,16.0,25,30.26,10.0,NNE,6.9,-,N/A,,Clear,30,2013-04-03 14:55:00
11:15 AM,51.8,17.6,26,30.26,10.0,East,4.6,-,N/A,,Clear,80,2013-04-03 15:15:00
11:35 AM,52.0,17.6,26,30.26,10.0,NNE,4.6,-,N/A,,Clear,30,2013-04-03 15:35:00
11:55 AM,53.6,19.4,26,30.26,10.0,ESE,4.6,-,N/A,,Clear,110,2013-04-03 15:55:00
12:15 PM,54.0,20.8,27,30.26,10.0,SSE,8.1,-,N/A,,Clear,160,2013-04-03 16:15:00
12:35 PM,55.2,20.5,26,30.25,10.0,South,8.1,-,N/A,,Clear,190,2013-04-03 16:35:00
12:55 PM,53.8,18.7,25,30.25,10.0,SSW,4.6,-,N/A,,Clear,210,2013-04-03 16:55:00
1:15 PM,55.0,19.4,25,30.24,10.0,SE,6.9,-,N/A,,Clear,130,2013-04-03 17:15:00
1:35 PM,56.3,21.6,26,30.23,10.0,East,8.1,-,N/A,,Clear,100,2013-04-03 17:35:00
1:55 PM,56.7,20.1,24,30.22,10.0,Calm,Calm,-,N/A,,Clear,0,2013-04-03 17:55:00
2:15 PM,57.9,20.1,23,30.21,10.0,NNE,3.5,-,N/A,,Clear,30,2013-04-03 18:15:00
2:35 PM,58.3,20.3,23,30.20,10.0,ENE,4.6,-,N/A,,Clear,70,2013-04-03 18:35:00
2:55 PM,57.6,21.2,24,30.21,10.0,SSE,5.8,-,N/A,,Clear,150,2013-04-03 18:55:00
3:15 PM,58.5,21.6,24,30.20,10.0,ESE,4.6,-,N/A,,Clear,110,2013-04-03 19:15:00
3:35 PM,58.6,20.8,23,30.20,10.0,South,8.1,-,N/A,,Clear,190,2013-04-03 19:35:00
3:55 PM,58.8,21.4,24,30.19,10.0,ESE,8.1,-,N/A,,Clear,110,2013-04-03 19:55:00
4:15 PM,59.9,22.8,24,30.19,10.0,SE,3.5,-,N/A,,Clear,140,2013-04-03 20:15:00
4:35 PM,59.4,21.4,23,30.19,10.0,Calm,Calm,-,N/A,,Clear,0,2013-04-03 20:35:00
4:55 PM,58.8,21.6,24,30.19,10.0,SSE,5.8,-,N/A,,Clear,150,2013-04-03 20:55:00
5:15 PM,59.2,23.0,25,30.19,10.0,SE,5.8,-,N/A,,Clear,130,2013-04-03 21:15:00
5:35 PM,58.8,22.8,25,30.19,10.0,SSE,8.1,-,N/A,,Clear,160,2013-04-03 21:35:00
5:55 PM,58.3,24.3,27,30.19,10.0,SSE,6.9,-,N/A,,Clear,160,2013-04-03 21:55:00
6:15 PM,57.6,24.1,28,30.19,10.0,SSE,5.8,-,N/A,,Clear,150,2013-04-03 22:15:00
6:35 PM,57.4,24.1,28,30.19,10.0,SSE,5.8,-,N/A,,Clear,150,2013-04-03 22:35:00
6:55 PM,56.7,24.1,28,30.18,10.0,SE,4.6,-,N/A,,Clear,140,2013-04-03 22:55:00
7:15 PM,55.9,24.4,30,30.19,10.0,SE,5.8,-,N/A,,Clear,130,2013-04-03 23:15:00
7:35 PM,55.6,24.3,30,30.19,10.0,ESE,3.5,-,N/A,,Clear,110,2013-04-03 23:35:00
7:55 PM,55.0,24.8,31,30.21,10.0,East,3.5,-,N/A,,Clear,100,2013-04-03 23:55:00
8:15 PM,54.5,25.7,33,30.21,10.0,East,3.5,-,N/A,,Clear,90,2013-04-04 00:15:00
8:35 PM,54.1,25.2,33,30.21,10.0,East,3.5,-,N/A,,Clear,80,2013-04-04 00:35:00
8:55 PM,54.0,24.8,32,30.22,10.0,Calm,Calm,-,N/A,,Clear,0,2013-04-04 00:55:00
9:15 PM,51.8,27.3,39,30.24,10.0,South,4.6,-,N/A,,Clear,190,2013-04-04 01:15:00
9:35 PM,52.5,25.7,35,30.24,10.0,Calm,Calm,-,N/A,,Clear,0,2013-04-04 01:35:00
9:55 PM,52.2,25.9,36,30.25,10.0,ESE,4.6,-,N/A,,Clear,110,2013-04-04 01:55:00
10:15 PM,52.2,26.2,37,30.25,10.0,East,3.5,-,N/A,,Clear,100,2013-04-04 02:15:00
10:35 PM,52.0,25.5,36,30.26,10.0,East,3.5,-,N/A,,Clear,80,2013-04-04 02:35:00
10:55 PM,51.8,24.8,35,30.27,10.0,Calm,Calm,-,N/A,,Clear,0,2013-04-04 02:55:00
11:15 PM,51.4,24.8,35,30.27,10.0,ENE,4.6,-,N/A,,Scattered Clouds,70,2013-04-04 03:15:00
11:35 PM,51.6,24.4,35,30.27,10.0,ENE,4.6,-,N/A,,Scattered Clouds,70,2013-04-04 03:35:00
11:55 PM,51.3,24.6,35,30.26,10.0,ENE,3.5,-,N/A,,Clear,70,2013-04-04 03:55:00